sensor_id;sensor_type;location;lat;lon;timestamp;P1;durP1;ratioP1;P2;durP2;ratioP2
22213;SDS011;11276;43.566;27.824;2022-09-02T00:01:13;17.40;;;5.47;;
22213;SDS011;11276;43.566;27.824;2022-09-02T00:03:45;21.30;;;6.07;;
22213;SDS011;11276;43.566;27.824;2022-09-02T00:06:12;22.23;;;6.07;;
22213;SDS011;11276;43.566;27.824;2022-09-02T00:08:39;16.60;;;5.23;;
22213;SDS011;11276;43.566;27.824;2022-09-02T00:11:07;14.10;;;5.30;;
22213;SDS011;11276;43.566;27.824;2022-09-02T00:13:38;12.67;;;5.77;;
22213;SDS011;11276;43.566;27.824;2022-09-02T00:16:05;19.03;;;5.93;;
22213;SDS011;11276;43.566;27.824;2022-09-02T00:18:32;15.60;;;6.47;;
22213;SDS011;11276;43.566;27.824;2022-09-02T00:20:59;16.10;;;6.07;;
22213;SDS011;11276;43.566;27.824;2022-09-02T00:23:26;16.97;;;6.50;;
22213;SDS011;11276;43.566;27.824;2022-09-02T00:25:53;23.87;;;7.03;;
22213;SDS011;11276;43.566;27.824;2022-09-02T00:28:19;17.07;;;7.27;;
22213;SDS011;11276;43.566;27.824;2022-09-02T00:30:46;16.93;;;6.67;;
22213;SDS011;11276;43.566;27.824;2022-09-02T00:33:13;18.93;;;6.73;;
22213;SDS011;11276;43.566;27.824;2022-09-02T00:35:40;19.30;;;5.80;;
22213;SDS011;11276;43.566;27.824;2022-09-02T00:38:07;11.80;;;5.50;;
22213;SDS011;11276;43.566;27.824;2022-09-02T00:40:35;14.27;;;5.70;;
22213;SDS011;11276;43.566;27.824;2022-09-02T00:43:06;12.77;;;5.70;;
22213;SDS011;11276;43.566;27.824;2022-09-02T00:45:34;13.00;;;5.17;;
22213;SDS011;11276;43.566;27.824;2022-09-02T00:48:03;12.40;;;5.13;;
22213;SDS011;11276;43.566;27.824;2022-09-02T00:50:32;12.40;;;4.83;;
22213;SDS011;11276;43.566;27.824;2022-09-02T00:53:03;12.87;;;5.00;;
22213;SDS011;11276;43.566;27.824;2022-09-02T00:55:38;12.37;;;5.60;;
22213;SDS011;11276;43.566;27.824;2022-09-02T00:58:17;12.03;;;4.97;;
22213;SDS011;11276;43.566;27.824;2022-09-02T01:00:48;12.03;;;5.30;;
22213;SDS011;11276;43.566;27.824;2022-09-02T01:03:19;10.50;;;5.40;;
22213;SDS011;11276;43.566;27.824;2022-09-02T01:05:47;13.23;;;4.80;;
22213;SDS011;11276;43.566;27.824;2022-09-02T01:08:20;13.30;;;5.37;;
22213;SDS011;11276;43.566;27.824;2022-09-02T01:10:51;14.23;;;5.67;;
22213;SDS011;11276;43.566;27.824;2022-09-02T01:13:21;13.20;;;5.10;;
22213;SDS011;11276;43.566;27.824;2022-09-02T01:15:55;12.73;;;5.70;;
22213;SDS011;11276;43.566;27.824;2022-09-02T01:18:37;13.90;;;4.70;;
22213;SDS011;11276;43.566;27.824;2022-09-02T01:21:04;20.80;;;5.17;;
22213;SDS011;11276;43.566;27.824;2022-09-02T01:23:31;12.80;;;5.03;;
22213;SDS011;11276;43.566;27.824;2022-09-02T01:26:00;10.87;;;4.70;;
22213;SDS011;11276;43.566;27.824;2022-09-02T01:28:27;21.37;;;6.17;;
22213;SDS011;11276;43.566;27.824;2022-09-02T01:30:54;13.90;;;5.67;;
22213;SDS011;11276;43.566;27.824;2022-09-02T01:33:21;12.80;;;6.10;;
22213;SDS011;11276;43.566;27.824;2022-09-02T01:35:49;13.10;;;5.53;;
22213;SDS011;11276;43.566;27.824;2022-09-02T01:38:16;23.77;;;5.70;;
22213;SDS011;11276;43.566;27.824;2022-09-02T01:40:44;14.90;;;5.40;;
22213;SDS011;11276;43.566;27.824;2022-09-02T01:43:13;11.57;;;4.80;;
22213;SDS011;11276;43.566;27.824;2022-09-02T01:45:43;12.63;;;5.60;;
22213;SDS011;11276;43.566;27.824;2022-09-02T01:48:11;13.27;;;5.80;;
22213;SDS011;11276;43.566;27.824;2022-09-02T01:50:43;13.80;;;4.60;;
22213;SDS011;11276;43.566;27.824;2022-09-02T01:53:13;18.00;;;6.10;;
22213;SDS011;11276;43.566;27.824;2022-09-02T01:55:40;15.33;;;6.80;;
22213;SDS011;11276;43.566;27.824;2022-09-02T01:58:08;16.60;;;6.37;;
22213;SDS011;11276;43.566;27.824;2022-09-02T02:00:35;14.03;;;6.30;;
22213;SDS011;11276;43.566;27.824;2022-09-02T02:03:02;14.60;;;5.63;;
22213;SDS011;11276;43.566;27.824;2022-09-02T02:05:29;14.87;;;6.30;;
22213;SDS011;11276;43.566;27.824;2022-09-02T02:07:56;19.80;;;7.43;;
22213;SDS011;11276;43.566;27.824;2022-09-02T02:10:23;13.47;;;5.93;;
22213;SDS011;11276;43.566;27.824;2022-09-02T02:12:50;13.30;;;6.13;;
22213;SDS011;11276;43.566;27.824;2022-09-02T02:15:17;14.07;;;5.90;;
22213;SDS011;11276;43.566;27.824;2022-09-02T02:17:45;13.07;;;5.57;;
22213;SDS011;11276;43.566;27.824;2022-09-02T02:20:13;21.43;;;5.67;;
22213;SDS011;11276;43.566;27.824;2022-09-02T02:22:41;16.03;;;6.13;;
22213;SDS011;11276;43.566;27.824;2022-09-02T02:25:09;14.30;;;5.90;;
22213;SDS011;11276;43.566;27.824;2022-09-02T02:27:37;15.17;;;6.60;;
22213;SDS011;11276;43.566;27.824;2022-09-02T02:30:05;14.00;;;5.60;;
22213;SDS011;11276;43.566;27.824;2022-09-02T02:32:34;13.53;;;5.70;;
22213;SDS011;11276;43.566;27.824;2022-09-02T02:35:02;17.13;;;6.00;;
22213;SDS011;11276;43.566;27.824;2022-09-02T02:37:29;14.50;;;5.20;;
22213;SDS011;11276;43.566;27.824;2022-09-02T02:39:56;12.87;;;5.77;;
22213;SDS011;11276;43.566;27.824;2022-09-02T02:42:22;16.57;;;6.60;;
22213;SDS011;11276;43.566;27.824;2022-09-02T02:44:49;14.93;;;6.77;;
22213;SDS011;11276;43.566;27.824;2022-09-02T02:47:16;10.87;;;5.30;;
22213;SDS011;11276;43.566;27.824;2022-09-02T02:49:43;13.03;;;6.20;;
22213;SDS011;11276;43.566;27.824;2022-09-02T02:52:10;22.57;;;6.30;;
22213;SDS011;11276;43.566;27.824;2022-09-02T02:54:38;14.90;;;6.00;;
22213;SDS011;11276;43.566;27.824;2022-09-02T02:57:06;16.07;;;6.20;;
22213;SDS011;11276;43.566;27.824;2022-09-02T02:59:34;13.07;;;5.57;;
22213;SDS011;11276;43.566;27.824;2022-09-02T03:02:03;15.93;;;5.57;;
22213;SDS011;11276;43.566;27.824;2022-09-02T03:04:31;10.50;;;5.40;;
22213;SDS011;11276;43.566;27.824;2022-09-02T03:06:59;34.90;;;6.87;;
22213;SDS011;11276;43.566;27.824;2022-09-02T03:09:26;10.77;;;5.80;;
22213;SDS011;11276;43.566;27.824;2022-09-02T03:11:53;11.60;;;5.90;;
22213;SDS011;11276;43.566;27.824;2022-09-02T03:14:19;14.10;;;5.37;;
22213;SDS011;11276;43.566;27.824;2022-09-02T03:16:46;11.33;;;5.60;;
22213;SDS011;11276;43.566;27.824;2022-09-02T03:19:13;12.50;;;6.50;;
22213;SDS011;11276;43.566;27.824;2022-09-02T03:21:40;13.83;;;5.57;;
22213;SDS011;11276;43.566;27.824;2022-09-02T03:24:09;20.13;;;6.30;;
22213;SDS011;11276;43.566;27.824;2022-09-02T03:26:37;16.90;;;6.07;;
22213;SDS011;11276;43.566;27.824;2022-09-02T03:29:05;14.20;;;6.10;;
22213;SDS011;11276;43.566;27.824;2022-09-02T03:31:32;31.20;;;7.30;;
22213;SDS011;11276;43.566;27.824;2022-09-02T03:33:59;22.30;;;6.47;;
22213;SDS011;11276;43.566;27.824;2022-09-02T03:36:32;10.63;;;5.83;;
22213;SDS011;11276;43.566;27.824;2022-09-02T03:39:04;14.57;;;6.63;;
22213;SDS011;11276;43.566;27.824;2022-09-02T03:41:32;10.87;;;5.27;;
22213;SDS011;11276;43.566;27.824;2022-09-02T03:43:59;10.57;;;6.13;;
22213;SDS011;11276;43.566;27.824;2022-09-02T03:46:27;13.30;;;7.17;;
22213;SDS011;11276;43.566;27.824;2022-09-02T03:48:55;12.77;;;5.97;;
22213;SDS011;11276;43.566;27.824;2022-09-02T03:51:21;13.10;;;6.03;;
22213;SDS011;11276;43.566;27.824;2022-09-02T03:53:49;12.53;;;6.27;;
22213;SDS011;11276;43.566;27.824;2022-09-02T03:56:16;11.27;;;5.93;;
22213;SDS011;11276;43.566;27.824;2022-09-02T03:58:44;11.73;;;6.60;;
22213;SDS011;11276;43.566;27.824;2022-09-02T04:01:16;12.67;;;6.60;;
22213;SDS011;11276;43.566;27.824;2022-09-02T04:03:45;17.70;;;6.00;;
22213;SDS011;11276;43.566;27.824;2022-09-02T04:06:13;10.13;;;5.90;;
22213;SDS011;11276;43.566;27.824;2022-09-02T04:08:43;15.00;;;6.80;;
22213;SDS011;11276;43.566;27.824;2022-09-02T04:11:15;12.83;;;6.60;;
22213;SDS011;11276;43.566;27.824;2022-09-02T04:13:46;13.00;;;5.83;;
22213;SDS011;11276;43.566;27.824;2022-09-02T04:16:15;10.20;;;5.77;;
22213;SDS011;11276;43.566;27.824;2022-09-02T04:18:44;13.13;;;5.53;;
22213;SDS011;11276;43.566;27.824;2022-09-02T04:21:11;13.40;;;6.03;;
22213;SDS011;11276;43.566;27.824;2022-09-02T04:23:39;13.03;;;6.40;;
22213;SDS011;11276;43.566;27.824;2022-09-02T04:26:07;13.33;;;6.17;;
22213;SDS011;11276;43.566;27.824;2022-09-02T04:28:36;12.23;;;6.33;;
22213;SDS011;11276;43.566;27.824;2022-09-02T04:31:06;42.03;;;9.97;;
22213;SDS011;11276;43.566;27.824;2022-09-02T04:33:34;12.40;;;7.03;;
22213;SDS011;11276;43.566;27.824;2022-09-02T04:36:06;52.00;;;7.83;;
22213;SDS011;11276;43.566;27.824;2022-09-02T04:38:34;13.87;;;6.63;;
22213;SDS011;11276;43.566;27.824;2022-09-02T04:44:01;11.70;;;6.20;;
22213;SDS011;11276;43.566;27.824;2022-09-02T04:46:28;16.97;;;6.07;;
22213;SDS011;11276;43.566;27.824;2022-09-02T04:48:55;11.63;;;5.70;;
22213;SDS011;11276;43.566;27.824;2022-09-02T04:51:23;8.70;;;5.77;;
22213;SDS011;11276;43.566;27.824;2022-09-02T04:53:52;12.50;;;5.27;;
22213;SDS011;11276;43.566;27.824;2022-09-02T04:56:20;20.47;;;6.43;;
22213;SDS011;11276;43.566;27.824;2022-09-02T04:58:49;13.50;;;6.60;;
22213;SDS011;11276;43.566;27.824;2022-09-02T05:01:18;23.30;;;7.10;;
22213;SDS011;11276;43.566;27.824;2022-09-02T05:03:47;13.73;;;6.10;;
22213;SDS011;11276;43.566;27.824;2022-09-02T05:06:16;11.30;;;5.77;;
22213;SDS011;11276;43.566;27.824;2022-09-02T05:08:45;11.60;;;5.97;;
22213;SDS011;11276;43.566;27.824;2022-09-02T05:11:15;13.73;;;6.10;;
22213;SDS011;11276;43.566;27.824;2022-09-02T05:13:48;14.53;;;6.03;;
22213;SDS011;11276;43.566;27.824;2022-09-02T05:16:22;14.40;;;5.87;;
22213;SDS011;11276;43.566;27.824;2022-09-02T05:18:51;14.83;;;5.30;;
22213;SDS011;11276;43.566;27.824;2022-09-02T05:21:19;33.60;;;7.73;;
22213;SDS011;11276;43.566;27.824;2022-09-02T05:23:49;19.13;;;6.40;;
22213;SDS011;11276;43.566;27.824;2022-09-02T05:26:16;14.40;;;7.07;;
22213;SDS011;11276;43.566;27.824;2022-09-02T05:28:43;51.23;;;7.80;;
22213;SDS011;11276;43.566;27.824;2022-09-02T05:31:12;18.57;;;6.47;;
22213;SDS011;11276;43.566;27.824;2022-09-02T05:33:40;16.20;;;5.63;;
22213;SDS011;11276;43.566;27.824;2022-09-02T05:36:08;15.27;;;6.30;;
22213;SDS011;11276;43.566;27.824;2022-09-02T05:38:38;16.47;;;5.80;;
22213;SDS011;11276;43.566;27.824;2022-09-02T05:41:07;16.57;;;5.53;;
22213;SDS011;11276;43.566;27.824;2022-09-02T05:43:35;15.50;;;6.20;;
22213;SDS011;11276;43.566;27.824;2022-09-02T05:46:04;27.30;;;6.70;;
22213;SDS011;11276;43.566;27.824;2022-09-02T05:48:33;15.17;;;6.13;;
22213;SDS011;11276;43.566;27.824;2022-09-02T05:51:20;13.57;;;4.63;;
22213;SDS011;11276;43.566;27.824;2022-09-02T05:53:51;15.50;;;5.27;;
22213;SDS011;11276;43.566;27.824;2022-09-02T05:56:20;13.17;;;5.17;;
22213;SDS011;11276;43.566;27.824;2022-09-02T05:58:47;15.77;;;5.23;;
22213;SDS011;11276;43.566;27.824;2022-09-02T06:01:16;13.07;;;4.30;;
22213;SDS011;11276;43.566;27.824;2022-09-02T06:03:44;18.07;;;4.77;;
22213;SDS011;11276;43.566;27.824;2022-09-02T06:06:11;13.33;;;4.00;;
22213;SDS011;11276;43.566;27.824;2022-09-02T06:08:39;16.00;;;5.20;;
22213;SDS011;11276;43.566;27.824;2022-09-02T06:11:06;16.20;;;4.37;;
22213;SDS011;11276;43.566;27.824;2022-09-02T06:13:35;26.23;;;4.80;;
22213;SDS011;11276;43.566;27.824;2022-09-02T06:16:04;13.37;;;3.97;;
22213;SDS011;11276;43.566;27.824;2022-09-02T06:18:31;16.70;;;4.67;;
22213;SDS011;11276;43.566;27.824;2022-09-02T06:20:58;14.73;;;4.10;;
22213;SDS011;11276;43.566;27.824;2022-09-02T06:23:26;13.37;;;3.80;;
22213;SDS011;11276;43.566;27.824;2022-09-02T06:25:53;16.13;;;4.50;;
22213;SDS011;11276;43.566;27.824;2022-09-02T06:28:20;11.60;;;4.10;;
22213;SDS011;11276;43.566;27.824;2022-09-02T06:30:47;14.90;;;4.73;;
22213;SDS011;11276;43.566;27.824;2022-09-02T06:33:14;11.53;;;4.10;;
22213;SDS011;11276;43.566;27.824;2022-09-02T06:35:42;12.60;;;4.43;;
22213;SDS011;11276;43.566;27.824;2022-09-02T06:38:10;13.13;;;4.87;;
22213;SDS011;11276;43.566;27.824;2022-09-02T06:40:48;14.87;;;4.20;;
22213;SDS011;11276;43.566;27.824;2022-09-02T06:43:17;12.50;;;4.50;;
22213;SDS011;11276;43.566;27.824;2022-09-02T06:45:44;17.57;;;4.70;;
22213;SDS011;11276;43.566;27.824;2022-09-02T06:48:11;13.33;;;4.33;;
22213;SDS011;11276;43.566;27.824;2022-09-02T06:50:39;22.07;;;4.13;;
22213;SDS011;11276;43.566;27.824;2022-09-02T06:53:08;12.73;;;4.57;;
22213;SDS011;11276;43.566;27.824;2022-09-02T06:55:37;10.40;;;4.17;;
22213;SDS011;11276;43.566;27.824;2022-09-02T06:58:05;11.50;;;4.10;;
22213;SDS011;11276;43.566;27.824;2022-09-02T07:00:32;13.30;;;4.60;;
22213;SDS011;11276;43.566;27.824;2022-09-02T07:03:00;14.70;;;4.30;;
22213;SDS011;11276;43.566;27.824;2022-09-02T07:05:46;14.97;;;4.50;;
22213;SDS011;11276;43.566;27.824;2022-09-02T07:08:13;13.57;;;4.30;;
22213;SDS011;11276;43.566;27.824;2022-09-02T07:10:40;15.27;;;4.13;;
22213;SDS011;11276;43.566;27.824;2022-09-02T07:13:07;12.50;;;4.10;;
22213;SDS011;11276;43.566;27.824;2022-09-02T07:15:34;12.10;;;4.10;;
22213;SDS011;11276;43.566;27.824;2022-09-02T07:18:01;15.77;;;4.60;;
22213;SDS011;11276;43.566;27.824;2022-09-02T07:20:29;11.57;;;3.70;;
22213;SDS011;11276;43.566;27.824;2022-09-02T07:22:56;12.20;;;4.30;;
22213;SDS011;11276;43.566;27.824;2022-09-02T07:25:23;13.10;;;3.80;;
22213;SDS011;11276;43.566;27.824;2022-09-02T07:27:50;10.73;;;3.70;;
22213;SDS011;11276;43.566;27.824;2022-09-02T07:30:17;10.77;;;3.47;;
22213;SDS011;11276;43.566;27.824;2022-09-02T07:32:44;8.53;;;3.43;;
22213;SDS011;11276;43.566;27.824;2022-09-02T07:35:11;11.80;;;4.20;;
22213;SDS011;11276;43.566;27.824;2022-09-02T07:37:38;10.73;;;3.80;;
22213;SDS011;11276;43.566;27.824;2022-09-02T07:40:05;6.70;;;3.03;;
22213;SDS011;11276;43.566;27.824;2022-09-02T07:42:34;13.37;;;4.17;;
22213;SDS011;11276;43.566;27.824;2022-09-02T07:45:01;9.83;;;3.77;;
22213;SDS011;11276;43.566;27.824;2022-09-02T07:47:29;10.00;;;3.47;;
22213;SDS011;11276;43.566;27.824;2022-09-02T07:49:56;7.90;;;3.27;;
22213;SDS011;11276;43.566;27.824;2022-09-02T07:52:42;6.33;;;3.23;;
22213;SDS011;11276;43.566;27.824;2022-09-02T07:55:09;7.83;;;3.40;;
22213;SDS011;11276;43.566;27.824;2022-09-02T07:57:39;7.53;;;3.73;;
22213;SDS011;11276;43.566;27.824;2022-09-02T08:00:06;7.13;;;3.43;;
22213;SDS011;11276;43.566;27.824;2022-09-02T08:02:33;9.17;;;3.50;;
22213;SDS011;11276;43.566;27.824;2022-09-02T08:05:00;9.07;;;4.27;;
22213;SDS011;11276;43.566;27.824;2022-09-02T08:07:27;13.33;;;3.00;;
22213;SDS011;11276;43.566;27.824;2022-09-02T08:09:54;12.67;;;3.60;;
22213;SDS011;11276;43.566;27.824;2022-09-02T08:12:20;9.03;;;3.27;;
22213;SDS011;11276;43.566;27.824;2022-09-02T08:14:47;13.47;;;3.40;;
22213;SDS011;11276;43.566;27.824;2022-09-02T08:17:14;8.33;;;3.17;;
22213;SDS011;11276;43.566;27.824;2022-09-02T08:19:41;8.57;;;3.60;;
22213;SDS011;11276;43.566;27.824;2022-09-02T08:22:07;8.20;;;3.20;;
22213;SDS011;11276;43.566;27.824;2022-09-02T08:24:34;9.77;;;4.00;;
22213;SDS011;11276;43.566;27.824;2022-09-02T08:27:01;7.47;;;3.40;;
22213;SDS011;11276;43.566;27.824;2022-09-02T08:29:28;10.63;;;4.33;;
22213;SDS011;11276;43.566;27.824;2022-09-02T08:31:55;15.73;;;3.93;;
22213;SDS011;11276;43.566;27.824;2022-09-02T08:34:21;16.00;;;3.93;;
22213;SDS011;11276;43.566;27.824;2022-09-02T08:36:48;7.27;;;3.10;;
22213;SDS011;11276;43.566;27.824;2022-09-02T08:39:15;9.53;;;3.47;;
22213;SDS011;11276;43.566;27.824;2022-09-02T08:44:46;9.60;;;4.10;;
22213;SDS011;11276;43.566;27.824;2022-09-02T08:47:17;13.17;;;3.30;;
22213;SDS011;11276;43.566;27.824;2022-09-02T08:49:49;9.63;;;4.07;;
22213;SDS011;11276;43.566;27.824;2022-09-02T08:52:30;6.60;;;2.87;;
22213;SDS011;11276;43.566;27.824;2022-09-02T08:55:04;14.43;;;3.70;;
22213;SDS011;11276;43.566;27.824;2022-09-02T08:57:36;11.30;;;3.43;;
22213;SDS011;11276;43.566;27.824;2022-09-02T09:00:03;15.87;;;4.40;;
22213;SDS011;11276;43.566;27.824;2022-09-02T09:02:38;9.83;;;3.60;;
22213;SDS011;11276;43.566;27.824;2022-09-02T09:16:40;9.60;;;4.27;;
22213;SDS011;11276;43.566;27.824;2022-09-02T09:19:13;10.10;;;3.93;;
22213;SDS011;11276;43.566;27.824;2022-09-02T09:21:58;7.33;;;3.83;;
22213;SDS011;11276;43.566;27.824;2022-09-02T09:24:34;12.30;;;3.73;;
22213;SDS011;11276;43.566;27.824;2022-09-02T09:27:05;9.90;;;3.90;;
22213;SDS011;11276;43.566;27.824;2022-09-02T09:29:36;11.13;;;4.33;;
22213;SDS011;11276;43.566;27.824;2022-09-02T09:32:03;18.03;;;4.27;;
22213;SDS011;11276;43.566;27.824;2022-09-02T09:34:54;10.00;;;4.10;;
22213;SDS011;11276;43.566;27.824;2022-09-02T09:37:30;12.80;;;4.20;;
22213;SDS011;11276;43.566;27.824;2022-09-02T09:40:18;8.53;;;4.03;;
22213;SDS011;11276;43.566;27.824;2022-09-02T09:45:44;9.00;;;4.00;;
22213;SDS011;11276;43.566;27.824;2022-09-02T09:50:42;8.77;;;4.33;;
22213;SDS011;11276;43.566;27.824;2022-09-02T09:53:19;10.97;;;4.10;;
22213;SDS011;11276;43.566;27.824;2022-09-02T09:58:52;12.30;;;4.57;;
22213;SDS011;11276;43.566;27.824;2022-09-02T10:06:56;7.87;;;3.40;;
22213;SDS011;11276;43.566;27.824;2022-09-02T10:14:31;15.17;;;4.20;;
22213;SDS011;11276;43.566;27.824;2022-09-02T10:36:15;7.90;;;3.93;;
22213;SDS011;11276;43.566;27.824;2022-09-02T10:39:07;10.43;;;4.37;;
22213;SDS011;11276;43.566;27.824;2022-09-02T10:41:53;10.33;;;4.57;;
22213;SDS011;11276;43.566;27.824;2022-09-02T10:44:38;10.30;;;4.27;;
22213;SDS011;11276;43.566;27.824;2022-09-02T10:50:09;8.70;;;4.50;;
22213;SDS011;11276;43.566;27.824;2022-09-02T10:52:52;6.80;;;3.40;;
22213;SDS011;11276;43.566;27.824;2022-09-02T10:55:35;14.80;;;4.10;;
22213;SDS011;11276;43.566;27.824;2022-09-02T11:01:19;11.03;;;4.37;;
22213;SDS011;11276;43.566;27.824;2022-09-02T11:04:12;12.93;;;5.27;;
22213;SDS011;11276;43.566;27.824;2022-09-02T11:07:05;17.00;;;4.83;;
22213;SDS011;11276;43.566;27.824;2022-09-02T11:09:42;9.67;;;3.67;;
22213;SDS011;11276;43.566;27.824;2022-09-02T11:12:56;9.53;;;5.27;;
22213;SDS011;11276;43.566;27.824;2022-09-02T11:20:52;14.10;;;5.23;;
22213;SDS011;11276;43.566;27.824;2022-09-02T11:29:16;12.97;;;5.20;;
22213;SDS011;11276;43.566;27.824;2022-09-02T11:31:50;17.17;;;5.00;;
22213;SDS011;11276;43.566;27.824;2022-09-02T11:37:04;11.30;;;4.63;;
22213;SDS011;11276;43.566;27.824;2022-09-02T11:39:49;16.67;;;5.13;;
22213;SDS011;11276;43.566;27.824;2022-09-02T11:48:06;14.83;;;4.60;;
22213;SDS011;11276;43.566;27.824;2022-09-02T11:53:33;21.20;;;4.67;;
22213;SDS011;11276;43.566;27.824;2022-09-02T11:56:13;18.27;;;4.67;;
22213;SDS011;11276;43.566;27.824;2022-09-02T11:59:00;15.07;;;4.80;;
22213;SDS011;11276;43.566;27.824;2022-09-02T12:03:58;12.70;;;4.60;;
22213;SDS011;11276;43.566;27.824;2022-09-02T12:09:43;13.13;;;4.13;;
22213;SDS011;11276;43.566;27.824;2022-09-02T12:17:31;13.10;;;4.87;;
22213;SDS011;11276;43.566;27.824;2022-09-02T12:20:04;12.90;;;4.80;;
22213;SDS011;11276;43.566;27.824;2022-09-02T12:22:34;13.53;;;4.83;;
22213;SDS011;11276;43.566;27.824;2022-09-02T12:28:07;15.83;;;4.60;;
22213;SDS011;11276;43.566;27.824;2022-09-02T12:33:38;14.00;;;4.33;;
22213;SDS011;11276;43.566;27.824;2022-09-02T12:58:22;19.33;;;4.13;;
22213;SDS011;11276;43.566;27.824;2022-09-02T13:06:33;18.07;;;4.80;;
22213;SDS011;11276;43.566;27.824;2022-09-02T13:31:59;13.43;;;4.13;;
22213;SDS011;11276;43.566;27.824;2022-09-02T13:34:41;13.67;;;4.60;;
22213;SDS011;11276;43.566;27.824;2022-09-02T13:40:23;16.37;;;4.37;;
22213;SDS011;11276;43.566;27.824;2022-09-02T13:42:55;11.77;;;4.30;;
22213;SDS011;11276;43.566;27.824;2022-09-02T13:45:29;15.90;;;4.10;;
22213;SDS011;11276;43.566;27.824;2022-09-02T13:48:01;15.60;;;4.43;;
22213;SDS011;11276;43.566;27.824;2022-09-02T13:50:32;16.00;;;4.50;;
22213;SDS011;11276;43.566;27.824;2022-09-02T13:53:00;12.43;;;4.50;;
22213;SDS011;11276;43.566;27.824;2022-09-02T13:55:50;15.67;;;4.70;;
22213;SDS011;11276;43.566;27.824;2022-09-02T13:58:41;12.33;;;3.93;;
22213;SDS011;11276;43.566;27.824;2022-09-02T14:04:10;14.27;;;4.83;;
22213;SDS011;11276;43.566;27.824;2022-09-02T14:06:41;14.03;;;5.57;;
22213;SDS011;11276;43.566;27.824;2022-09-02T14:09:17;14.73;;;5.27;;
22213;SDS011;11276;43.566;27.824;2022-09-02T14:11:52;29.73;;;6.17;;
22213;SDS011;11276;43.566;27.824;2022-09-02T14:14:21;15.50;;;4.80;;
22213;SDS011;11276;43.566;27.824;2022-09-02T14:16:49;15.93;;;5.70;;
22213;SDS011;11276;43.566;27.824;2022-09-02T14:21:53;20.80;;;5.67;;
22213;SDS011;11276;43.566;27.824;2022-09-02T14:26:53;20.57;;;5.57;;
22213;SDS011;11276;43.566;27.824;2022-09-02T14:29:22;16.73;;;4.87;;
22213;SDS011;11276;43.566;27.824;2022-09-02T14:34:44;18.07;;;5.60;;
22213;SDS011;11276;43.566;27.824;2022-09-02T14:42:25;14.87;;;5.43;;
22213;SDS011;11276;43.566;27.824;2022-09-02T14:44:54;18.87;;;5.40;;
22213;SDS011;11276;43.566;27.824;2022-09-02T14:47:24;17.37;;;4.37;;
22213;SDS011;11276;43.566;27.824;2022-09-02T14:49:53;14.33;;;4.23;;
22213;SDS011;11276;43.566;27.824;2022-09-02T14:54:53;16.20;;;4.40;;
22213;SDS011;11276;43.566;27.824;2022-09-02T14:59:54;10.53;;;2.50;;
22213;SDS011;11276;43.566;27.824;2022-09-02T15:02:23;10.80;;;2.67;;
22213;SDS011;11276;43.566;27.824;2022-09-02T15:05:00;9.33;;;2.20;;
22213;SDS011;11276;43.566;27.824;2022-09-02T15:07:28;9.87;;;2.90;;
22213;SDS011;11276;43.566;27.824;2022-09-02T15:09:55;8.23;;;3.20;;
22213;SDS011;11276;43.566;27.824;2022-09-02T15:12:32;8.73;;;3.30;;
22213;SDS011;11276;43.566;27.824;2022-09-02T15:15:02;14.60;;;4.00;;
22213;SDS011;11276;43.566;27.824;2022-09-02T15:17:29;8.17;;;4.40;;
22213;SDS011;11276;43.566;27.824;2022-09-02T15:19:56;10.27;;;5.23;;
22213;SDS011;11276;43.566;27.824;2022-09-02T15:22:23;11.00;;;4.93;;
22213;SDS011;11276;43.566;27.824;2022-09-02T15:24:50;10.00;;;5.20;;
22213;SDS011;11276;43.566;27.824;2022-09-02T15:27:16;8.00;;;4.03;;
22213;SDS011;11276;43.566;27.824;2022-09-02T15:29:43;6.93;;;3.83;;
22213;SDS011;11276;43.566;27.824;2022-09-02T15:32:10;7.60;;;4.47;;
22213;SDS011;11276;43.566;27.824;2022-09-02T15:34:37;12.20;;;5.13;;
22213;SDS011;11276;43.566;27.824;2022-09-02T15:37:03;9.47;;;5.77;;
22213;SDS011;11276;43.566;27.824;2022-09-02T15:39:31;9.57;;;4.70;;
22213;SDS011;11276;43.566;27.824;2022-09-02T15:41:58;13.23;;;4.77;;
22213;SDS011;11276;43.566;27.824;2022-09-02T15:44:25;8.23;;;3.77;;
22213;SDS011;11276;43.566;27.824;2022-09-02T15:46:52;10.37;;;4.40;;
22213;SDS011;11276;43.566;27.824;2022-09-02T15:49:19;12.50;;;3.77;;
22213;SDS011;11276;43.566;27.824;2022-09-02T15:51:48;7.00;;;3.47;;
22213;SDS011;11276;43.566;27.824;2022-09-02T15:54:16;4.70;;;3.27;;
22213;SDS011;11276;43.566;27.824;2022-09-02T15:56:45;8.10;;;4.43;;
22213;SDS011;11276;43.566;27.824;2022-09-02T15:59:13;16.80;;;4.43;;
22213;SDS011;11276;43.566;27.824;2022-09-02T16:01:50;5.33;;;3.77;;
22213;SDS011;11276;43.566;27.824;2022-09-02T16:04:18;11.13;;;4.73;;
22213;SDS011;11276;43.566;27.824;2022-09-02T16:06:45;9.63;;;4.57;;
22213;SDS011;11276;43.566;27.824;2022-09-02T16:09:14;7.97;;;4.47;;
22213;SDS011;11276;43.566;27.824;2022-09-02T16:11:43;9.80;;;4.53;;
22213;SDS011;11276;43.566;27.824;2022-09-02T16:14:13;7.83;;;4.33;;
22213;SDS011;11276;43.566;27.824;2022-09-02T16:16:40;7.10;;;4.60;;
22213;SDS011;11276;43.566;27.824;2022-09-02T16:19:08;9.43;;;4.10;;
22213;SDS011;11276;43.566;27.824;2022-09-02T16:21:35;8.33;;;4.87;;
22213;SDS011;11276;43.566;27.824;2022-09-02T16:24:06;6.17;;;4.00;;
22213;SDS011;11276;43.566;27.824;2022-09-02T16:26:37;4.63;;;4.13;;
22213;SDS011;11276;43.566;27.824;2022-09-02T16:29:07;6.60;;;4.50;;
22213;SDS011;11276;43.566;27.824;2022-09-02T16:31:36;5.23;;;4.17;;
22213;SDS011;11276;43.566;27.824;2022-09-02T16:34:08;5.13;;;3.70;;
22213;SDS011;11276;43.566;27.824;2022-09-02T16:36:37;7.20;;;4.50;;
22213;SDS011;11276;43.566;27.824;2022-09-02T16:39:06;22.70;;;6.87;;
22213;SDS011;11276;43.566;27.824;2022-09-02T16:41:34;13.57;;;6.27;;
22213;SDS011;11276;43.566;27.824;2022-09-02T16:44:03;19.97;;;5.70;;
22213;SDS011;11276;43.566;27.824;2022-09-02T16:46:32;9.03;;;4.43;;
22213;SDS011;11276;43.566;27.824;2022-09-02T16:48:59;14.40;;;6.30;;
22213;SDS011;11276;43.566;27.824;2022-09-02T16:51:26;12.07;;;5.87;;
22213;SDS011;11276;43.566;27.824;2022-09-02T16:53:56;12.13;;;6.37;;
22213;SDS011;11276;43.566;27.824;2022-09-02T16:56:25;9.90;;;6.10;;
22213;SDS011;11276;43.566;27.824;2022-09-02T16:58:52;11.30;;;7.10;;
22213;SDS011;11276;43.566;27.824;2022-09-02T17:01:20;14.43;;;9.00;;
22213;SDS011;11276;43.566;27.824;2022-09-02T17:03:47;13.00;;;8.20;;
22213;SDS011;11276;43.566;27.824;2022-09-02T17:06:15;12.97;;;7.77;;
22213;SDS011;11276;43.566;27.824;2022-09-02T17:08:43;10.67;;;6.50;;
22213;SDS011;11276;43.566;27.824;2022-09-02T17:11:13;16.57;;;6.87;;
22213;SDS011;11276;43.566;27.824;2022-09-02T17:13:42;15.90;;;6.10;;
22213;SDS011;11276;43.566;27.824;2022-09-02T17:16:09;9.43;;;6.40;;
22213;SDS011;11276;43.566;27.824;2022-09-02T17:18:37;11.47;;;6.30;;
22213;SDS011;11276;43.566;27.824;2022-09-02T17:21:18;12.90;;;6.93;;
22213;SDS011;11276;43.566;27.824;2022-09-02T17:23:45;14.70;;;7.00;;
22213;SDS011;11276;43.566;27.824;2022-09-02T17:26:12;16.53;;;6.80;;
22213;SDS011;11276;43.566;27.824;2022-09-02T17:28:40;19.70;;;8.43;;
22213;SDS011;11276;43.566;27.824;2022-09-02T17:31:18;16.70;;;9.20;;
22213;SDS011;11276;43.566;27.824;2022-09-02T17:33:48;31.67;;;12.27;;
22213;SDS011;11276;43.566;27.824;2022-09-02T17:36:16;28.10;;;13.70;;